Time;durP1;ratioP1;P1;durP2;ratioP2;P2;SDS_P1;SDS_P2;PMS_P1;PMS_P2;Temp;Humidity;BMP_temperature;BMP_pressure;BME280_temperature;BME280_humidity;BME280_pressure;Samples;Min_cycle;Max_cycle;Signal;HPM_P1;HPM_P2
2022/11/11 00:00:27;;;;;;;40.28;21.95;;;8.40;99.90;;;;;;5049600;28;19959;-76
2022/11/11 00:02:56;;;;;;;;;;;8.40;99.90;;;;;;5031639;28;20477;-75
2022/11/11 00:05:23;;;;;;;40.15;21.05;;;8.40;99.90;;;;;;5031193;28;20490;-76
2022/11/11 00:07:51;;;;;;;35.22;19.17;;;8.40;99.90;;;;;;5049172;28;20099;-76
2022/11/11 00:10:16;;;;;;;31.23;17.05;;;8.50;99.90;;;;;;5031165;28;20746;-75
2022/11/11 00:12:42;;;;;;;;;;;8.50;99.90;;;;;;5049166;28;20079;-75
2022/11/11 00:15:08;;;;;;;25.42;13.00;;;8.70;99.90;;;;;;5048878;28;19914;-76
2022/11/11 00:25:54;;;;;;;33.03;17.65;;;8.90;99.90;;;;;;5051699;28;20913;-75
2022/11/11 00:28:20;;;;;;;32.45;20.00;;;9.00;99.90;;;;;;5034234;28;20055;-75
2022/11/11 00:30:45;;;;;;;;;;;8.90;99.90;;;;;;5034699;28;20631;-75
2022/11/11 00:33:11;;;;;;;34.78;19.85;;;8.90;99.90;;;;;;5052063;28;19909;-76
2022/11/11 00:35:52;;;;;;;;;;;8.80;99.90;;;;;;5052576;28;20021;-75
2022/11/11 00:41:02;;;;;;;31.00;19.27;;;8.80;99.90;;;;;;5052607;28;20749;-75
2022/11/11 00:43:28;;;;;;;;;;;8.70;99.90;;;;;;5052654;28;20104;-75
2022/11/11 00:50:57;;;;;;;32.22;18.50;;;8.70;99.90;;;;;;5051820;28;19956;-75
2022/11/11 00:51:24;;;;;;;33.20;18.40;;;8.70;99.90;;;;;;5052706;28;20051;-75
2022/11/11 00:53:49;;;;;;;;;;;8.70;99.90;;;;;;5052802;28;20405;-77
2022/11/11 00:56:15;;;;;;;24.27;14.27;;;8.80;99.90;;;;;;5052034;28;20033;-75
2022/11/11 00:58:41;;;;;;;;;;;8.90;99.90;;;;;;5034259;28;20021;-75
2022/11/11 01:01:06;;;;;;;22.15;12.98;;;8.90;99.90;;;;;;5051860;28;19905;-75
2022/11/11 01:03:32;;;;;;;;;;;9.00;99.90;;;;;;5052805;28;20111;-75
2022/11/11 01:06:02;;;;;;;21.67;12.48;;;9.00;99.90;;;;;;5051746;28;20004;-75
2022/11/11 01:08:27;;;;;;;25.45;15.23;;;9.00;99.90;;;;;;5033996;28;20509;-75
2022/11/11 01:10:53;;;;;;;;;;;9.00;99.90;;;;;;5034389;28;20043;-75
2022/11/11 01:13:21;;;;;;;34.00;17.33;;;9.10;99.90;;;;;;5052112;28;20305;-76
2022/11/11 01:15:52;;;;;;;27.63;15.05;;;9.10;99.90;;;;;;5034207;28;20021;-76
2022/11/11 01:18:20;;;;;;;28.70;15.45;;;9.10;99.90;;;;;;5052213;28;20033;-75
2022/11/11 01:20:46;;;;;;;40.10;15.68;;;9.10;99.90;;;;;;5035018;28;20113;-76
2022/11/11 01:23:12;;;;;;;;;;;9.10;99.90;;;;;;5053042;28;20041;-76
2022/11/11 01:25:40;;;;;;;23.50;14.00;;;9.10;99.90;;;;;;5052227;28;19919;-75
2022/11/11 01:28:06;;;;;;;27.00;13.95;;;9.10;99.90;;;;;;5052241;28;20048;-77
2022/11/11 01:30:33;;;;;;;27.98;14.25;;;9.20;99.90;;;;;;5052006;28;20021;-76
2022/11/11 01:33:00;;;;;;;21.50;14.05;;;9.20;99.90;;;;;;5052162;28;20057;-75
2022/11/11 01:35:25;;;;;;;21.38;13.07;;;9.20;99.90;;;;;;5051958;28;20571;-75
2022/11/11 01:37:51;;;;;;;;;;;9.20;99.90;;;;;;5052897;28;20021;-75
2022/11/11 01:40:16;;;;;;;19.17;12.13;;;9.20;99.90;;;;;;5032641;28;19943;-75
2022/11/11 01:42:49;;;;;;;;;;;9.10;99.90;;;;;;5032505;28;20068;-75
2022/11/11 01:45:51;;;;;;;20.55;12.18;;;9.20;99.90;;;;;;5050580;28;19908;-75
2022/11/11 01:51:37;;;;;;;23.80;14.32;;;9.00;99.90;;;;;;5050024;28;20047;-74
2022/11/11 01:54:09;;;;;;;26.13;13.88;;;9.00;99.90;;;;;;5049967;28;20021;-75
2022/11/11 01:56:35;;;;;;;18.40;11.55;;;9.00;99.90;;;;;;5049870;28;20056;-75
2022/11/11 01:59:07;;;;;;;21.33;11.02;;;8.90;99.90;;;;;;5050360;28;20859;-75
2022/11/11 02:01:34;;;;;;;20.30;12.80;;;8.90;99.90;;;;;;5050052;28;20536;-75
2022/11/11 02:06:52;;;;;;;;;;;8.80;99.90;;;;;;5050432;28;20075;-75
2022/11/11 02:09:20;;;;;;;21.20;13.25;;;8.80;99.90;;;;;;5050020;28;19904;-76
2022/11/11 02:14:38;;;;;;;19.58;12.27;;;8.80;99.90;;;;;;5049793;28;20519;-75
2022/11/11 02:17:07;;;;;;;19.80;12.07;;;8.80;99.90;;;;;;5049782;28;20531;-75
2022/11/11 02:19:52;;;;;;;19.85;11.77;;;8.70;99.90;;;;;;5032085;28;20025;-75
2022/11/11 02:22:27;;;;;;;22.67;11.40;;;8.70;99.90;;;;;;5049694;28;20021;-75
2022/11/11 02:24:54;;;;;;;21.23;12.55;;;8.70;99.90;;;;;;5031978;28;20067;-75
2022/11/11 02:27:22;;;;;;;22.95;13.52;;;8.60;99.90;;;;;;5049599;28;20056;-74
2022/11/11 02:29:50;;;;;;;23.85;13.02;;;8.50;99.90;;;;;;5050028;28;20021;-75
2022/11/11 02:32:22;;;;;;;27.98;14.30;;;8.50;99.90;;;;;;5050078;28;20033;-76
2022/11/11 02:34:48;;;;;;;23.05;13.45;;;8.40;99.90;;;;;;5049788;28;20528;-76
2022/11/11 02:37:15;;;;;;;;;;;8.30;99.90;;;;;;5050313;28;20013;-76
2022/11/11 02:39:44;;;;;;;23.65;12.80;;;8.20;99.90;;;;;;5030961;28;19912;-75
2022/11/11 02:42:13;;;;;;;23.10;13.60;;;8.20;99.90;;;;;;5050165;28;20033;-76
2022/11/11 02:44:39;;;;;;;25.98;15.20;;;8.10;99.90;;;;;;5032166;28;20056;-76
2022/11/11 02:47:04;;;;;;;;;;;8.00;99.90;;;;;;5050993;28;20075;-77
2022/11/11 02:49:30;;;;;;;21.90;14.05;;;8.00;99.90;;;;;;5050370;28;19955;-77
2022/11/11 02:51:55;;;;;;;;;;;8.20;99.90;;;;;;5050709;28;20094;-76
2022/11/11 02:54:21;;;;;;;31.95;16.90;;;8.10;99.90;;;;;;5050721;28;20412;-76
2022/11/11 02:59:31;;;;;;;33.08;14.30;;;8.30;99.90;;;;;;5050797;28;20371;-76
2022/11/11 03:01:56;;;;;;;;;;;8.30;99.90;;;;;;5033509;28;20025;-76
2022/11/11 03:04:22;;;;;;;26.63;14.18;;;8.40;99.90;;;;;;5050943;28;19908;-76
2022/11/11 03:06:47;;;;;;;;;;;8.40;99.90;;;;;;5050861;28;20033;-76
2022/11/11 03:09:13;;;;;;;22.35;13.32;;;8.50;99.90;;;;;;5050575;28;20047;-76
2022/11/11 03:11:39;;;;;;;;;;;8.50;99.90;;;;;;5032991;28;20028;-75
2022/11/11 03:14:06;;;;;;;28.80;12.67;;;8.50;99.90;;;;;;5050364;28;19939;-77
2022/11/11 03:19:17;;;;;;;25.77;13.23;;;8.60;99.90;;;;;;5051668;28;20520;-76
2022/11/11 03:21:43;;;;;;;;;;;8.60;99.90;;;;;;5051054;28;20060;-76
2022/11/11 03:24:09;;;;;;;24.02;13.45;;;8.60;99.90;;;;;;5050868;28;19913;-76
2022/11/11 03:26:34;;;;;;;;;;;8.60;99.90;;;;;;5050577;28;20387;-76
2022/11/11 03:29:00;;;;;;;28.48;14.40;;;8.60;99.90;;;;;;5032986;28;19913;-76
2022/11/11 03:31:25;;;;;;;;;;;8.60;99.90;;;;;;5051036;28;20079;-77
2022/11/11 03:33:51;;;;;;;23.75;13.73;;;8.60;99.90;;;;;;5050723;28;19908;-77
2022/11/11 03:36:17;;;;;;;;;;;8.60;99.90;;;;;;5051231;28;20029;-77
2022/11/11 03:38:42;;;;;;;24.33;14.02;;;8.60;99.90;;;;;;5032472;28;19951;-76
2022/11/11 03:41:08;;;;;;;;;;;8.50;99.90;;;;;;5051022;28;20451;-76
2022/11/11 03:43:34;;;;;;;27.15;13.55;;;8.50;99.90;;;;;;5033472;28;19905;-77
2022/11/11 03:46:01;;;;;;;31.00;16.10;;;8.50;99.90;;;;;;5051118;28;20025;-76
2022/11/11 03:48:30;;;;;;;27.15;15.15;;;8.50;99.90;;;;;;5051701;28;20045;-77
2022/11/11 03:50:56;;;;;;;25.85;14.15;;;8.50;99.90;;;;;;5051611;28;20028;-76
2022/11/11 03:53:22;;;;;;;;;;;8.50;99.90;;;;;;5035227;28;20378;-76
2022/11/11 03:55:48;;;;;;;27.52;15.05;;;8.40;99.90;;;;;;5035350;28;20017;-76
2022/11/11 03:58:14;;;;;;;35.03;16.40;;;8.40;99.90;;;;;;5050167;28;20055;-77
2022/11/11 04:00:40;;;;;;;28.55;15.90;;;8.50;99.90;;;;;;5051751;28;20120;-76
2022/11/11 04:11:16;;;;;;;33.47;15.80;;;8.50;99.90;;;;;;5053011;28;20032;-77
2022/11/11 04:16:30;;;;;;;30.35;16.98;;;8.50;99.90;;;;;;5052637;28;20440;-76
2022/11/11 04:21:42;;;;;;;35.22;17.55;;;8.50;99.90;;;;;;5052954;28;19916;-76
2022/11/11 04:27:05;;;;;;;31.70;17.40;;;8.50;99.90;;;;;;5052146;28;20086;-76
2022/11/11 04:29:32;;;;;;;28.70;16.88;;;8.50;99.90;;;;;;5034867;28;20043;-76
2022/11/11 04:34:54;;;;;;;33.95;17.85;;;8.50;99.90;;;;;;5053064;28;20119;-76
2022/11/11 04:37:21;;;;;;;31.73;18.08;;;8.50;99.90;;;;;;5052688;28;20057;-76
2022/11/11 04:42:33;;;;;;;30.90;18.02;;;8.50;99.90;;;;;;5051613;28;20528;-76
2022/11/11 04:48:03;;;;;;;29.92;17.00;;;8.50;99.90;;;;;;5051976;28;20086;-76
2022/11/11 04:50:36;;;;;;;32.05;18.08;;;8.40;99.90;;;;;;5034185;28;20394;-76
2022/11/11 04:53:05;;;;;;;38.97;21.80;;;8.40;99.90;;;;;;5051766;28;20032;-76
2022/11/11 04:58:17;;;;;;;38.58;21.05;;;8.40;99.90;;;;;;5051950;28;20048;-77
2022/11/11 05:00:43;;;;;;;37.45;19.27;;;8.50;99.90;;;;;;5051979;28;20021;-75
2022/11/11 05:03:16;;;;;;;;;;;8.40;99.90;;;;;;5053198;28;20428;-75
2022/11/11 05:11:15;;;;;;;45.08;26.13;;;8.20;99.90;;;;;;5053033;28;20508;-76
2022/11/11 05:22:06;;;;;;;44.50;25.20;;;8.10;99.90;;;;;;5052869;28;20000;-75
2022/11/11 05:27:15;;;;;;;42.72;22.50;;;8.00;99.90;;;;;;5052307;28;20059;-76
2022/11/11 05:29:41;;;;;;;;;;;8.00;99.90;;;;;;5034043;28;20516;-76
2022/11/11 05:32:07;;;;;;;42.60;22.30;;;8.00;99.90;;;;;;5051020;28;19908;-76
2022/11/11 05:34:33;;;;;;;47.97;25.25;;;7.90;99.90;;;;;;5051616;28;20036;-74
2022/11/11 05:36:58;;;;;;;;;;;7.90;99.90;;;;;;5052259;28;20503;-75
2022/11/11 05:39:24;;;;;;;47.00;26.55;;;7.90;99.90;;;;;;5052384;28;19961;-76
2022/11/11 05:41:49;;;;;;;;;;;7.80;99.90;;;;;;5052221;28;20045;-75
2022/11/11 05:44:15;;;;;;;40.92;23.75;;;7.80;99.90;;;;;;5034019;28;19909;-75
2022/11/11 05:46:40;;;;;;;;;;;7.80;99.90;;;;;;5051825;28;20033;-75
2022/11/11 05:49:15;;;;;;;43.78;23.85;;;7.70;99.90;;;;;;5051611;28;19915;-76
2022/11/11 05:51:44;;;;;;;46.75;25.75;;;7.70;99.90;;;;;;5052589;28;20083;-75
2022/11/11 05:54:11;;;;;;;49.13;27.27;;;7.70;99.90;;;;;;5034558;28;20025;-75
2022/11/11 05:56:37;;;;;;;48.38;27.40;;;7.70;99.90;;;;;;5052136;28;20036;-74
2022/11/11 05:59:03;;;;;;;;;;;7.70;99.90;;;;;;5052246;28;20029;-76
2022/11/11 06:01:28;;;;;;;39.08;23.25;;;7.80;99.90;;;;;;5052223;28;19991;-75
2022/11/11 06:03:54;;;;;;;;;;;7.80;99.90;;;;;;5034508;28;20033;-76
2022/11/11 06:06:20;;;;;;;41.30;24.15;;;7.90;99.90;;;;;;5052966;28;19913;-75
2022/11/11 06:08:45;;;;;;;;;;;7.90;99.90;;;;;;5052499;28;20040;-75
2022/11/11 06:11:11;;;;;;;50.38;26.10;;;7.90;99.90;;;;;;5051956;28;20019;-75
2022/11/11 06:13:36;;;;;;;;;;;8.00;99.90;;;;;;5053093;28;20777;-76
2022/11/11 06:16:03;;;;;;;39.55;24.80;;;8.00;99.90;;;;;;5053434;28;20331;-75
2022/11/11 06:18:28;;;;;;;43.13;24.83;;;8.10;99.90;;;;;;5051148;28;20025;-75
2022/11/11 06:20:54;;;;;;;;;;;8.10;99.90;;;;;;5051155;28;20568;-75
2022/11/11 06:23:21;;;;;;;45.22;25.13;;;8.10;99.90;;;;;;5031832;28;19932;-75
2022/11/11 06:28:31;;;;;;;65.75;40.17;;;8.30;99.90;;;;;;5050597;28;20071;-76
2022/11/11 06:30:56;;;;;;;;;;;8.50;99.90;;;;;;5050465;28;20025;-76
2022/11/11 06:33:22;;;;;;;43.40;25.90;;;8.70;99.90;;;;;;5031485;28;19915;-76
2022/11/11 06:35:48;;;;;;;;;;;8.90;99.90;;;;;;5050046;28;20504;-76
2022/11/11 06:38:13;;;;;;;42.92;26.55;;;9.10;99.90;;;;;;5031353;28;19908;-76
2022/11/11 06:40:41;;;;;;;;;;;9.40;99.90;;;;;;5049528;28;20108;-76
2022/11/11 06:43:06;;;;;;;65.32;38.63;;;9.60;99.90;;;;;;5031282;28;19904;-76
2022/11/11 06:45:34;;;;;;;;;;;9.80;99.90;;;;;;5031370;28;20032;-76
2022/11/11 06:47:59;;;;;;;39.85;23.58;;;10.00;99.90;;;;;;5030747;28;19999;-76
2022/11/11 06:50:25;;;;;;;;;;;10.20;99.90;;;;;;5031178;28;20120;-77
2022/11/11 06:52:51;;;;;;;35.65;20.98;;;10.40;99.90;;;;;;5030571;28;19915;-77
2022/11/11 06:55:17;;;;;;;;;;;10.60;99.90;;;;;;5049093;28;20033;-75
2022/11/11 06:57:43;;;;;;;37.03;23.05;;;10.60;99.90;;;;;;5048378;28;20343;-76
2022/11/11 07:00:09;;;;;;;;;;;10.70;99.90;;;;;;5031079;28;20025;-76
2022/11/11 07:02:34;;;;;;;48.33;27.38;;;10.80;99.90;;;;;;5048217;28;19916;-76
2022/11/11 07:05:00;;;;;;;;;;;11.00;99.90;;;;;;5048872;28;20033;-76
2022/11/11 07:07:27;;;;;;;39.30;21.33;;;11.10;99.90;;;;;;5048071;28;19916;-77
2022/11/11 07:09:54;;;;;;;40.33;21.00;;;11.10;99.90;;;;;;5048345;28;20017;-77
2022/11/11 07:12:21;;;;;;;34.78;20.92;;;11.20;99.90;;;;;;5048443;28;20111;-76
2022/11/11 07:14:47;;;;;;;34.05;20.08;;;11.20;99.90;;;;;;5048251;28;20017;-76
2022/11/11 07:17:12;;;;;;;;;;;11.20;99.90;;;;;;5030754;28;20043;-77
2022/11/11 07:19:38;;;;;;;33.13;19.17;;;11.20;99.90;;;;;;5030702;28;19908;-76
2022/11/11 07:22:04;;;;;;;;;;;11.30;99.90;;;;;;5048351;28;20087;-76
2022/11/11 07:24:29;;;;;;;32.75;20.23;;;11.30;99.90;;;;;;5048133;28;19909;-76
2022/11/11 07:26:55;;;;;;;;;;;11.30;99.90;;;;;;5048539;28;20424;-76
2022/11/11 07:29:21;;;;;;;32.85;19.02;;;11.30;99.90;;;;;;5030133;28;19942;-76
2022/11/11 07:31:46;;;;;;;;;;;11.40;99.90;;;;;;5030613;28;20398;-76
2022/11/11 07:34:12;;;;;;;30.13;18.45;;;11.50;99.90;;;;;;5030973;28;19909;-78
2022/11/11 07:36:37;;;;;;;33.55;18.63;;;11.70;99.90;;;;;;5052060;28;20401;-78
2022/11/11 07:39:03;;;;;;;;;;;12.00;99.90;;;;;;5052314;28;20032;-76
2022/11/11 07:41:28;;;;;;;34.63;18.10;;;12.20;99.90;;;;;;5034270;28;19908;-77
2022/11/11 07:43:54;;;;;;;;;;;12.20;99.90;;;;;;5034764;28;20071;-77
2022/11/11 07:46:19;;;;;;;32.35;18.92;;;12.20;99.90;;;;;;5051929;28;19920;-78
2022/11/11 07:48:45;;;;;;;;;;;12.20;99.90;;;;;;5034375;28;20591;-78
2022/11/11 07:51:11;;;;;;;40.10;22.00;;;12.10;99.90;;;;;;5051803;28;20372;-77
2022/11/11 07:53:36;;;;;;;36.03;22.67;;;12.00;99.90;;;;;;5034098;28;20434;-77
2022/11/11 07:56:02;;;;;;;30.45;17.75;;;12.00;99.90;;;;;;5051925;28;20025;-77
2022/11/11 07:58:27;;;;;;;;;;;11.90;99.90;;;;;;5052185;28;20558;-76
2022/11/11 08:00:53;;;;;;;29.67;16.98;;;11.90;99.90;;;;;;5051734;28;19908;-77
2022/11/11 08:03:18;;;;;;;;;;;11.80;99.90;;;;;;5034259;28;20025;-76
2022/11/11 08:05:44;;;;;;;39.80;22.35;;;11.70;99.90;;;;;;5051803;28;19912;-76
2022/11/11 08:08:10;;;;;;;;;;;11.60;99.90;;;;;;5051894;28;20555;-76
2022/11/11 08:10:36;;;;;;;47.90;26.88;;;11.60;99.90;;;;;;5051592;28;19908;-75
2022/11/11 08:15:46;;;;;;;65.93;32.72;;;11.50;99.90;;;;;;5051689;28;19911;-77
2022/11/11 08:18:12;;;;;;;;;;;11.70;99.90;;;;;;5052151;28;20108;-76
2022/11/11 08:20:38;;;;;;;59.47;31.25;;;11.90;99.90;;;;;;5033500;28;19904;-76
2022/11/11 08:23:04;;;;;;;46.17;25.58;;;12.10;99.90;;;;;;5033338;28;20021;-77
2022/11/11 08:25:30;;;;;;;;;;;12.10;99.90;;;;;;5052039;28;20102;-77
2022/11/11 08:28:00;;;;;;;36.20;22.48;;;12.20;99.90;;;;;;5051442;28;19924;-76
2022/11/11 08:30:25;;;;;;;42.20;24.20;;;12.20;99.90;;;;;;5033587;28;20440;-76
2022/11/11 08:32:58;;;;;;;;;;;12.20;99.90;;;;;;5051717;28;20492;-75
2022/11/11 08:35:23;;;;;;;48.22;26.85;;;12.20;99.90;;;;;;5033258;28;19908;-77
2022/11/11 08:37:49;;;;;;;;;;;12.20;99.90;;;;;;5033585;28;20112;-78
2022/11/11 08:40:15;;;;;;;47.08;28.90;;;12.10;99.90;;;;;;5051058;28;19904;-77
2022/11/11 08:42:41;;;;;;;46.92;28.25;;;12.10;99.90;;;;;;5050624;28;20077;-77
2022/11/11 08:45:07;;;;;;;;;;;12.10;99.90;;;;;;5050790;28;20040;-77
2022/11/11 08:47:32;;;;;;;41.63;26.85;;;12.50;99.90;;;;;;5050971;28;19912;-76
2022/11/11 08:49:58;;;;;;;45.33;25.50;;;13.30;99.90;;;;;;5050966;28;20397;-76
2022/11/11 08:52:23;;;;;;;38.75;24.50;;;13.90;99.90;;;;;;5050929;28;20461;-76
2022/11/11 08:54:49;;;;;;;41.33;24.40;;;14.00;99.90;;;;;;5050796;28;20031;-77
2022/11/11 08:57:15;;;;;;;38.22;23.83;;;13.90;99.90;;;;;;5050950;28;20032;-75
2022/11/11 08:59:42;;;;;;;40.70;24.10;;;13.50;99.90;;;;;;5050705;28;20036;-76
2022/11/11 09:02:13;;;;;;;40.50;24.30;;;13.30;99.90;;;;;;5051106;28;20397;-78
2022/11/11 09:04:39;;;;;;;43.45;25.48;;;13.10;99.90;;;;;;5032269;28;20029;-78
2022/11/11 09:07:07;;;;;;;41.67;24.48;;;13.00;99.90;;;;;;5050880;28;20037;-77
2022/11/11 09:09:32;;;;;;;47.83;25.80;;;13.00;99.90;;;;;;5032818;28;20033;-77
2022/11/11 09:11:58;;;;;;;40.42;25.27;;;13.00;99.90;;;;;;5050131;28;20563;-75
2022/11/11 09:14:24;;;;;;;39.75;25.65;;;13.10;99.90;;;;;;5032851;28;20555;-77
2022/11/11 09:16:49;;;;;;;;;;;13.30;99.90;;;;;;5033064;28;20033;-77
2022/11/11 09:19:15;;;;;;;49.17;28.15;;;13.50;99.90;;;;;;5050450;28;19909;-78
2022/11/11 09:21:41;;;;;;;51.45;29.02;;;13.60;99.90;;;;;;5032240;28;20424;-78
2022/11/11 09:24:07;;;;;;;44.05;28.08;;;13.70;99.90;;;;;;5050627;28;20017;-78
2022/11/11 09:26:35;;;;;;;45.38;27.73;;;13.80;99.90;;;;;;5049853;28;20061;-77
2022/11/11 09:29:01;;;;;;;44.92;28.13;;;13.80;99.90;;;;;;5050306;28;20041;-77
2022/11/11 09:31:27;;;;;;;47.42;26.98;;;13.80;99.90;;;;;;5050108;28;20527;-78
2022/11/11 09:33:52;;;;;;;;;;;13.80;99.90;;;;;;5032543;28;20076;-77
2022/11/11 09:36:18;;;;;;;43.83;25.55;;;14.10;99.90;;;;;;5050189;28;19915;-78
2022/11/11 09:38:44;;;;;;;42.40;26.95;;;14.20;99.90;;;;;;5049897;28;20554;-77
2022/11/11 09:41:32;;;;;;;45.60;25.50;;;14.10;99.90;;;;;;5015570;28;20029;-75
2022/11/11 09:44:02;;;;;;;37.17;23.83;;;14.20;99.90;;;;;;5050691;28;20104;-77
2022/11/11 09:46:40;;;;;;;38.67;24.27;;;14.30;99.90;;;;;;5032094;28;20031;-78
2022/11/11 09:49:11;;;;;;;38.20;23.95;;;14.50;99.90;;;;;;5050183;28;20052;-76
2022/11/11 09:51:50;;;;;;;36.28;22.17;;;14.60;99.90;;;;;;5049657;28;20051;-76
2022/11/11 09:54:29;;;;;;;36.72;21.77;;;14.80;99.90;;;;;;5049883;28;20504;-76
2022/11/11 09:56:57;;;;;;;35.13;22.63;;;14.80;99.90;;;;;;5048550;28;20485;-76
2022/11/11 09:59:26;;;;;;;37.28;22.10;;;14.70;99.90;;;;;;5049611;28;20025;-77
2022/11/11 10:01:57;;;;;;;38.40;23.50;;;14.80;99.90;;;;;;5049698;28;20025;-78
2022/11/11 10:04:37;;;;;;;36.85;20.98;;;14.70;99.90;;;;;;5031547;28;20025;-76
2022/11/11 10:07:11;;;;;;;44.08;25.85;;;14.70;99.90;;;;;;5049399;28;20370;-76
2022/11/11 10:09:51;;;;;;;30.90;20.60;;;14.70;99.90;;;;;;5031499;28;20039;-77
2022/11/11 10:12:19;;;;;;;31.40;19.73;;;14.80;99.90;;;;;;5049331;28;20124;-75
2022/11/11 10:14:48;;;;;;;32.97;21.42;;;14.80;99.90;;;;;;5031450;28;20497;-77
2022/11/11 10:17:38;;;;;;;36.22;23.70;;;14.90;99.90;;;;;;5049439;28;20021;-76
2022/11/11 10:20:29;;;;;;;35.47;21.17;;;15.00;99.90;;;;;;5049272;28;20639;-77
2022/11/11 10:23:03;;;;;;;33.30;21.45;;;14.90;99.90;;;;;;5031202;28;20033;-77
2022/11/11 10:25:29;;;;;;;35.28;21.00;;;14.90;99.90;;;;;;5049378;28;20037;-77
2022/11/11 10:27:59;;;;;;;29.27;18.52;;;14.90;99.90;;;;;;5048670;28;20044;-77
2022/11/11 10:30:30;;;;;;;26.45;17.00;;;14.90;99.90;;;;;;5030962;28;20025;-76
2022/11/11 10:33:08;;;;;;;60.55;36.58;;;14.90;99.90;;;;;;5048409;28;20044;-77
2022/11/11 10:35:36;;;;;;;32.47;18.63;;;14.80;99.90;;;;;;5030787;28;20060;-77
2022/11/11 10:38:11;;;;;;;28.63;18.30;;;14.60;99.90;;;;;;5048799;28;20036;-76
2022/11/11 10:40:45;;;;;;;32.70;19.95;;;14.40;99.90;;;;;;5030695;28;20025;-75
2022/11/11 10:43:20;;;;;;;30.67;18.05;;;14.30;99.90;;;;;;5031129;28;20037;-77
2022/11/11 10:45:52;;;;;;;30.20;19.40;;;14.30;99.90;;;;;;5048639;28;20196;-76
2022/11/11 10:48:25;;;;;;;30.02;18.95;;;14.40;99.90;;;;;;5049378;28;20051;-75
2022/11/11 10:50:55;;;;;;;32.17;18.58;;;14.30;99.90;;;;;;5048703;28;20028;-76
2022/11/11 10:53:50;;;;;;;33.45;20.27;;;14.30;99.90;;;;;;5048394;28;20498;-76
2022/11/11 10:56:35;;;;;;;26.33;18.05;;;14.30;99.90;;;;;;5048811;28;20043;-77
2022/11/11 10:59:36;;;;;;;27.63;16.73;;;14.30;99.90;;;;;;5030551;28;20060;-76
2022/11/11 11:02:25;;;;;;;25.58;16.95;;;14.40;99.90;;;;;;5039921;28;20120;-77
2022/11/11 11:05:05;;;;;;;25.80;16.80;;;14.40;99.90;;;;;;5048561;28;20036;-77
2022/11/11 11:07:46;;;;;;;30.65;17.92;;;14.40;99.90;;;;;;5030498;28;20043;-77
2022/11/11 11:10:40;;;;;;;26.20;16.60;;;14.50;99.90;;;;;;5048282;28;20025;-75
2022/11/11 11:13:17;;;;;;;33.42;18.30;;;14.40;99.90;;;;;;5030040;28;20621;-76
2022/11/11 11:15:54;;;;;;;30.00;17.60;;;14.50;99.90;;;;;;5030790;28;20452;-77
2022/11/11 11:18:26;;;;;;;29.02;17.52;;;14.40;99.90;;;;;;5030478;28;20029;-76
2022/11/11 11:21:04;;;;;;;23.73;15.55;;;14.40;99.90;;;;;;5030418;28;20083;-77
2022/11/11 11:23:38;;;;;;;25.25;16.42;;;14.30;99.90;;;;;;5048452;28;20106;-78
2022/11/11 11:26:04;;;;;;;27.30;15.13;;;14.30;99.90;;;;;;5022298;28;20053;-77
2022/11/11 11:28:30;;;;;;;24.92;15.30;;;14.30;99.90;;;;;;5010443;28;20044;-77
2022/11/11 11:31:04;;;;;;;28.08;16.27;;;14.30;99.90;;;;;;5010543;28;20021;-76
2022/11/11 11:33:51;;;;;;;28.33;15.57;;;14.20;99.90;;;;;;5010651;28;20540;-76
2022/11/11 11:36:18;;;;;;;25.55;15.52;;;14.20;99.90;;;;;;5028508;28;20037;-77
2022/11/11 11:38:46;;;;;;;25.55;15.60;;;14.10;99.90;;;;;;5028376;28;20407;-77
2022/11/11 11:41:12;;;;;;;21.75;13.88;;;14.10;99.90;;;;;;5028997;28;20513;-77
2022/11/11 11:43:41;;;;;;;23.92;14.35;;;14.00;99.90;;;;;;5010560;28;20033;-77
2022/11/11 11:46:37;;;;;;;24.63;15.45;;;14.00;99.90;;;;;;5011085;28;20401;-77
2022/11/11 11:49:38;;;;;;;24.05;15.85;;;14.00;99.90;;;;;;5009474;28;20417;-76
2022/11/11 11:52:31;;;;;;;26.92;16.38;;;14.00;99.90;;;;;;5010808;28;20025;-76
2022/11/11 11:55:05;;;;;;;24.20;15.68;;;14.00;99.90;;;;;;5029737;28;20034;-77
2022/11/11 11:57:52;;;;;;;26.20;15.18;;;14.00;99.90;;;;;;5042234;28;20047;-76
2022/11/11 12:00:22;;;;;;;24.38;14.13;;;13.90;99.90;;;;;;5046414;28;20108;-74
2022/11/11 12:03:07;;;;;;;25.35;15.85;;;13.90;99.90;;;;;;5027790;28;20037;-77
2022/11/11 12:05:58;;;;;;;27.42;15.48;;;13.90;99.90;;;;;;5028076;28;20036;-75
2022/11/11 12:08:46;;;;;;;22.77;13.82;;;13.80;99.90;;;;;;5045502;28;20185;-75
2022/11/11 12:11:25;;;;;;;23.40;14.80;;;13.90;99.90;;;;;;5027020;28;20040;-77
2022/11/11 12:14:05;;;;;;;20.77;13.73;;;13.90;99.90;;;;;;5019532;28;20037;-74
2022/11/11 12:16:33;;;;;;;23.27;14.80;;;14.00;99.90;;;;;;5047705;28;20033;-76
2022/11/11 12:19:28;;;;;;;22.05;13.38;;;14.10;99.90;;;;;;5049161;28;20028;-76
2022/11/11 12:22:01;;;;;;;23.15;13.75;;;14.20;99.90;;;;;;5032907;28;20052;-76
2022/11/11 12:24:45;;;;;;;21.83;13.73;;;14.30;99.90;;;;;;5033233;28;20128;-76
2022/11/11 12:27:22;;;;;;;22.95;14.25;;;14.40;99.90;;;;;;5033338;28;20521;-76
2022/11/11 12:29:57;;;;;;;25.70;15.65;;;14.50;99.90;;;;;;5053260;28;20032;-77
2022/11/11 12:32:45;;;;;;;26.13;16.25;;;14.60;99.90;;;;;;5033420;28;20031;-75
2022/11/11 12:35:32;;;;;;;23.45;14.18;;;14.60;99.90;;;;;;5033355;28;20021;-76
2022/11/11 12:38:16;;;;;;;;;;;14.60;99.90;;;;;;5033509;28;20405;-75
2022/11/11 12:40:54;;;;;;;24.73;14.00;;;14.50;99.90;;;;;;5051126;28;19915;-76
2022/11/11 12:43:47;;;;;;;26.90;15.57;;;14.40;99.90;;;;;;5051191;28;20031;-75
2022/11/11 12:46:32;;;;;;;24.23;14.00;;;14.40;99.90;;;;;;5033137;28;20075;-75
2022/11/11 12:49:16;;;;;;;23.27;14.90;;;14.30;99.90;;;;;;5033347;28;20065;-76
2022/11/11 12:51:50;;;;;;;25.60;15.10;;;14.30;99.90;;;;;;5051034;28;20405;-75
2022/11/11 12:54:42;;;;;;;20.70;13.80;;;14.20;99.90;;;;;;5050751;28;20504;-76
2022/11/11 12:57:29;;;;;;;25.92;15.15;;;14.30;99.90;;;;;;5032909;28;20115;-77
2022/11/11 13:00:20;;;;;;;25.10;15.05;;;14.40;99.90;;;;;;5050796;28;20044;-75
2022/11/11 13:03:16;;;;;;;23.40;12.85;;;14.60;99.90;;;;;;5032426;28;20035;-75
2022/11/11 13:06:24;;;;;;;21.83;12.35;;;14.60;99.90;;;;;;5032604;28;20029;-75
2022/11/11 13:09:03;;;;;;;18.90;11.93;;;14.50;99.90;;;;;;5004110;28;20048;-74
2022/11/11 13:11:35;;;;;;;19.45;11.15;;;14.30;99.90;;;;;;5050720;28;20029;-75
2022/11/11 13:14:30;;;;;;;17.55;9.88;;;14.20;99.90;;;;;;5032522;28;20033;-74
2022/11/11 13:17:00;;;;;;;16.10;9.27;;;14.10;99.90;;;;;;5050462;28;20028;-81
2022/11/11 13:20:01;;;;;;;15.45;9.05;;;14.00;99.90;;;;;;5050147;28;20060;-75
2022/11/11 13:22:31;;;;;;;13.27;8.63;;;13.90;99.90;;;;;;5007573;28;20080;-76
2022/11/11 13:25:01;;;;;;;12.85;7.78;;;13.80;99.90;;;;;;5032684;28;20088;-78
2022/11/11 13:27:39;;;;;;;13.90;7.97;;;13.80;99.90;;;;;;5032390;28;20049;-75
2022/11/11 13:30:06;;;;;;;15.38;9.45;;;13.60;99.90;;;;;;5032356;28;20079;-77
2022/11/11 13:32:47;;;;;;;15.40;9.35;;;13.60;99.90;;;;;;5031917;28;20083;-76
2022/11/11 13:35:25;;;;;;;18.38;7.28;;;13.50;99.90;;;;;;5050116;28;20118;-75
2022/11/11 13:37:51;;;;;;;15.10;6.60;;;13.50;99.90;;;;;;5031954;28;20036;-77
2022/11/11 13:40:29;;;;;;;;;;;13.50;99.90;;;;;;5032656;28;20382;-77
2022/11/11 13:42:55;;;;;;;11.65;4.95;;;13.40;99.90;;;;;;5050101;28;19915;-76
2022/11/11 13:45:28;;;;;;;;;;;13.40;99.90;;;;;;5050234;28;20032;-74
2022/11/11 13:47:55;;;;;;;10.18;3.42;;;13.40;99.90;;;;;;5049798;28;19924;-78
2022/11/11 13:50:32;;;;;;;7.18;3.35;;;13.30;99.90;;;;;;5031918;28;20039;-76
2022/11/11 13:53:12;;;;;;;8.32;3.08;;;13.30;99.90;;;;;;5032677;28;20040;-76
2022/11/11 13:55:43;;;;;;;7.53;2.88;;;13.20;99.90;;;;;;5050122;28;20032;-77
2022/11/11 13:58:30;;;;;;;7.00;3.88;;;13.30;99.90;;;;;;5049676;28;20054;-78
2022/11/11 14:00:59;;;;;;;11.07;3.67;;;13.20;99.90;;;;;;5049578;28;20677;-77
2022/11/11 14:03:25;;;;;;;7.25;3.55;;;13.20;99.90;;;;;;5049633;28;20048;-78
2022/11/11 14:06:09;;;;;;;;;;;13.20;99.90;;;;;;5032085;28;20114;-77
2022/11/11 14:08:49;;;;;;;7.38;3.00;;;13.10;99.90;;;;;;5049297;28;19917;-76
2022/11/11 14:11:24;;;;;;;9.27;4.32;;;13.10;99.90;;;;;;5031646;28;20445;-76
2022/11/11 14:13:55;;;;;;;7.07;3.40;;;13.00;99.90;;;;;;5049197;28;20056;-76
2022/11/11 14:16:33;;;;;;;10.50;3.45;;;12.90;99.90;;;;;;5049352;28;20029;-76
2022/11/11 14:19:17;;;;;;;9.65;4.30;;;12.80;99.90;;;;;;5031556;28;20063;-76
2022/11/11 14:21:53;;;;;;;8.65;4.45;;;12.70;99.90;;;;;;5049229;28;20040;-76
2022/11/11 14:24:36;;;;;;;8.27;3.70;;;12.60;99.90;;;;;;5031342;28;20041;-76
2022/11/11 14:27:14;;;;;;;11.82;4.38;;;12.60;99.90;;;;;;5064813;28;20526;-76
2022/11/11 14:29:51;;;;;;;12.95;4.70;;;12.50;99.90;;;;;;5069050;28;20495;-75